Time;durP1;ratioP1;P1;durP2;ratioP2;P2;SDS_P1;SDS_P2;PMS_P1;PMS_P2;Temp;Humidity;BMP_temperature;BMP_pressure;BME280_temperature;BME280_humidity;BME280_pressure;Samples;Min_cycle;Max_cycle;Signal;HPM_P1;HPM_P2
2023/05/22 00:00:13;;;;;;;1.50;0.97;;;18.70;98.20;;;;;;5066820;28;20473;-80
2023/05/22 00:02:43;;;;;;;1.50;0.90;;;18.70;98.20;;;;;;5062070;28;21126;-80
2023/05/22 00:05:10;;;;;;;1.50;1.00;;;18.70;98.20;;;;;;5061270;28;20478;-79
2023/05/22 00:07:39;;;;;;;1.50;0.90;;;18.60;98.20;;;;;;5062920;28;20466;-80
2023/05/22 00:10:07;;;;;;;1.60;1.20;;;18.60;98.20;;;;;;5063157;28;20485;-79
2023/05/22 00:12:34;;;;;;;1.50;0.90;;;18.60;98.20;;;;;;5063036;28;20471;-80
2023/05/22 00:15:01;;;;;;;1.50;0.90;;;18.50;98.20;;;;;;5066275;28;20476;-80
2023/05/22 00:17:29;;;;;;;1.50;0.90;;;18.50;98.20;;;;;;5065067;28;20457;-80
2023/05/22 00:20:01;;;;;;;1.50;1.00;;;18.50;98.20;;;;;;5064854;28;20493;-80
2023/05/22 00:22:30;;;;;;;1.50;1.00;;;18.50;98.20;;;;;;5066215;28;20484;-80
2023/05/22 00:24:58;;;;;;;1.50;0.93;;;18.40;98.20;;;;;;5065058;28;20872;-80
2023/05/22 00:27:25;;;;;;;1.50;0.90;;;18.40;98.20;;;;;;5061253;28;20470;-80
2023/05/22 00:29:51;;;;;;;1.50;1.00;;;18.40;98.20;;;;;;5068713;22;20482;-80
2023/05/22 00:32:18;;;;;;;1.50;1.00;;;18.40;98.20;;;;;;5043255;28;20470;-80
2023/05/22 00:34:45;;;;;;;1.50;0.93;;;18.30;98.20;;;;;;5045535;28;20485;-80
2023/05/22 00:37:12;;;;;;;1.50;0.90;;;18.30;98.20;;;;;;5046924;28;20458;-80
2023/05/22 00:39:39;;;;;;;1.50;0.90;;;18.30;98.20;;;;;;5048712;28;20639;-79
2023/05/22 00:42:07;;;;;;;1.50;1.00;;;18.30;98.20;;;;;;5048971;28;20504;-80
2023/05/22 00:44:34;;;;;;;1.47;0.90;;;18.20;98.20;;;;;;5044366;28;20458;-81
2023/05/22 00:47:01;;;;;;;1.50;0.90;;;18.20;98.20;;;;;;5047738;28;20567;-79
2023/05/22 00:49:27;;;;;;;1.50;0.90;;;18.20;98.20;;;;;;5051993;28;20493;-81
2023/05/22 00:51:55;;;;;;;1.50;0.90;;;18.20;98.20;;;;;;5046629;28;20485;-80
2023/05/22 00:54:22;;;;;;;1.50;1.00;;;18.20;98.20;;;;;;5051349;28;20457;-79
2023/05/22 00:56:49;;;;;;;1.50;1.00;;;18.20;98.20;;;;;;5052325;28;20450;-82
2023/05/22 00:59:18;;;;;;;1.50;1.00;;;18.10;98.20;;;;;;5052228;28;21011;-80
2023/05/22 01:01:46;;;;;;;1.50;0.90;;;18.10;98.20;;;;;;5049893;28;20466;-80
2023/05/22 01:04:14;;;;;;;1.50;0.90;;;18.10;98.20;;;;;;5052501;28;20532;-80
2023/05/22 01:06:41;;;;;;;1.50;0.90;;;18.10;98.20;;;;;;5052052;28;20500;-79
2023/05/22 01:09:08;;;;;;;1.50;0.90;;;18.10;98.20;;;;;;5051544;28;20489;-79
2023/05/22 01:11:40;;;;;;;1.50;1.00;;;18.10;98.20;;;;;;5058119;28;21040;-80
2023/05/22 01:14:19;;;;;;;1.50;1.00;;;18.00;98.20;;;;;;5053675;28;20461;-79
2023/05/22 01:16:58;;;;;;;1.50;0.90;;;18.00;98.20;;;;;;5054317;28;20458;-79
2023/05/22 01:19:49;;;;;;;1.50;1.00;;;18.00;98.20;;;;;;5040623;28;20486;-80
2023/05/22 01:22:27;;;;;;;1.50;0.90;;;18.00;98.20;;;;;;5047701;28;21020;-80
2023/05/22 01:25:12;;;;;;;1.50;1.00;;;18.00;98.20;;;;;;5050511;28;20477;-79
2023/05/22 01:28:08;;;;;;;1.50;0.90;;;18.00;98.20;;;;;;5049873;28;20450;-81
2023/05/22 01:30:56;;;;;;;1.50;0.90;;;17.90;98.20;;;;;;5037791;28;20470;-80
2023/05/22 01:33:24;;;;;;;1.50;1.00;;;17.90;98.20;;;;;;5047199;28;20458;-79
2023/05/22 01:35:52;;;;;;;1.50;0.90;;;17.90;98.20;;;;;;5051191;28;20447;-80
2023/05/22 01:38:21;;;;;;;1.47;0.90;;;17.80;98.20;;;;;;5051506;28;20465;-80
2023/05/22 01:40:48;;;;;;;1.50;1.00;;;17.80;98.20;;;;;;5048439;28;20458;-79
2023/05/22 01:43:15;;;;;;;1.50;0.90;;;17.80;98.20;;;;;;5046613;28;20560;-79
2023/05/22 01:45:42;;;;;;;1.50;0.90;;;17.80;98.20;;;;;;5050403;28;21035;-80
2023/05/22 01:48:11;;;;;;;1.50;1.00;;;17.80;98.20;;;;;;5049562;28;20737;-81
2023/05/22 01:50:38;;;;;;;1.50;0.90;;;17.80;98.20;;;;;;5049018;28;20458;-80
2023/05/22 01:53:11;;;;;;;1.50;1.10;;;17.80;98.20;;;;;;5052299;28;20894;-79
2023/05/22 01:55:46;;;;;;;1.50;0.90;;;17.80;98.20;;;;;;5052253;28;20467;-80
2023/05/22 01:58:21;;;;;;;1.50;1.00;;;17.70;98.20;;;;;;5048643;28;20465;-80
2023/05/22 02:00:52;;;;;;;1.50;0.90;;;17.70;98.20;;;;;;5045662;28;20462;-80
2023/05/22 02:03:24;;;;;;;1.50;0.90;;;17.70;98.20;;;;;;5049270;28;20910;-78
2023/05/22 02:05:54;;;;;;;1.50;0.90;;;17.70;98.20;;;;;;5046985;28;21025;-80
2023/05/22 02:08:23;;;;;;;1.50;0.90;;;17.70;98.20;;;;;;5049227;28;20486;-79
2023/05/22 02:10:52;;;;;;;1.50;1.00;;;17.70;98.20;;;;;;5049034;28;20478;-79
2023/05/22 02:13:19;;;;;;;1.50;1.00;;;17.60;98.20;;;;;;5049672;28;20591;-79
2023/05/22 02:15:47;;;;;;;1.50;1.00;;;17.60;98.20;;;;;;5047091;28;20459;-79
2023/05/22 02:18:14;;;;;;;1.50;0.90;;;17.60;98.20;;;;;;5045485;28;20451;-79
2023/05/22 02:20:42;;;;;;;1.50;0.90;;;17.60;98.20;;;;;;5051614;28;20465;-78
2023/05/22 02:23:09;;;;;;;1.47;0.90;;;17.60;98.20;;;;;;5049797;28;20471;-79
2023/05/22 02:25:36;;;;;;;1.50;0.90;;;17.60;98.20;;;;;;5049661;28;20979;-79
2023/05/22 02:28:03;;;;;;;1.50;1.00;;;17.50;98.20;;;;;;5049195;28;20512;-79
2023/05/22 02:30:29;;;;;;;1.50;0.90;;;17.60;98.20;;;;;;5049071;28;20466;-78
2023/05/22 02:32:57;;;;;;;1.50;0.90;;;17.60;98.20;;;;;;5049021;28;20469;-80
2023/05/22 02:35:24;;;;;;;1.50;0.90;;;17.50;98.20;;;;;;5049524;28;20516;-80
2023/05/22 02:37:52;;;;;;;1.50;1.00;;;17.50;98.20;;;;;;5048612;28;20541;-78
2023/05/22 02:40:18;;;;;;;1.50;0.90;;;17.50;98.20;;;;;;5044732;28;20486;-79
2023/05/22 02:42:45;;;;;;;1.50;1.00;;;17.50;98.20;;;;;;5046498;28;20462;-79
2023/05/22 02:45:12;;;;;;;1.50;1.00;;;17.40;98.20;;;;;;5048636;28;20845;-79
2023/05/22 02:47:39;;;;;;;1.50;0.90;;;17.40;98.20;;;;;;5048440;28;20516;-78
2023/05/22 02:50:07;;;;;;;1.50;0.90;;;17.40;98.20;;;;;;5048654;28;20490;-78
2023/05/22 02:52:33;;;;;;;1.50;0.97;;;17.40;98.20;;;;;;5048945;28;20470;-79
2023/05/22 02:55:03;;;;;;;1.50;1.00;;;17.40;98.20;;;;;;5048400;28;20653;-79
2023/05/22 02:57:29;;;;;;;1.50;1.00;;;17.40;98.20;;;;;;5049453;28;20906;-79
2023/05/22 02:59:58;;;;;;;1.50;0.90;;;17.40;98.20;;;;;;5048841;28;20875;-80
2023/05/22 03:02:25;;;;;;;1.50;0.90;;;17.40;98.20;;;;;;5049027;28;20458;-79
2023/05/22 03:04:52;;;;;;;1.50;0.90;;;17.40;98.20;;;;;;5047706;28;20475;-79
2023/05/22 03:07:20;;;;;;;1.50;0.90;;;17.40;98.20;;;;;;5048649;28;20465;-78
2023/05/22 03:09:47;;;;;;;1.50;0.90;;;17.30;98.20;;;;;;5045960;28;21018;-79
2023/05/22 03:12:15;;;;;;;1.50;1.00;;;17.40;98.20;;;;;;5047574;28;20461;-78
2023/05/22 03:14:42;;;;;;;1.50;1.00;;;17.30;98.20;;;;;;5047075;28;20606;-78
2023/05/22 03:17:08;;;;;;;1.50;0.90;;;17.30;98.20;;;;;;5047490;28;21000;-78
2023/05/22 03:19:35;;;;;;;1.50;0.90;;;17.30;98.20;;;;;;5047791;28;20998;-79
2023/05/22 03:22:02;;;;;;;1.80;1.60;;;17.30;98.20;;;;;;5048501;28;20466;-78
2023/05/22 03:24:30;;;;;;;1.50;0.90;;;17.30;98.20;;;;;;5047690;28;20462;-79
2023/05/22 03:26:57;;;;;;;1.50;1.00;;;17.20;98.20;;;;;;5046772;28;20461;-78
2023/05/22 03:29:25;;;;;;;1.50;0.90;;;17.30;98.20;;;;;;5045979;28;21047;-79
2023/05/22 03:31:52;;;;;;;1.50;1.00;;;17.20;98.20;;;;;;5047992;28;20646;-78
2023/05/22 03:34:21;;;;;;;1.50;0.90;;;17.20;98.20;;;;;;5047564;28;20473;-79
2023/05/22 03:36:48;;;;;;;1.50;1.00;;;17.20;98.20;;;;;;5037509;28;20513;-77
2023/05/22 03:39:14;;;;;;;1.50;0.90;;;17.20;98.20;;;;;;5046934;28;20489;-79
2023/05/22 03:41:41;;;;;;;1.50;0.90;;;17.20;98.20;;;;;;5042686;28;20469;-78
2023/05/22 03:44:08;;;;;;;1.50;0.90;;;17.20;98.20;;;;;;5038808;28;20500;-78
2023/05/22 03:46:36;;;;;;;1.50;0.93;;;17.10;98.20;;;;;;5044194;28;20968;-78
2023/05/22 03:49:03;;;;;;;1.50;1.10;;;17.10;98.20;;;;;;5046575;28;20506;-78
2023/05/22 03:51:31;;;;;;;1.50;0.90;;;17.10;98.20;;;;;;5045195;28;20470;-78
2023/05/22 03:53:58;;;;;;;1.50;0.90;;;17.10;98.20;;;;;;5044435;28;20897;-78
2023/05/22 03:56:25;;;;;;;1.50;1.00;;;17.10;98.20;;;;;;5044325;28;20483;-78
2023/05/22 03:58:52;;;;;;;1.50;0.97;;;17.10;98.20;;;;;;5044101;28;20996;-78
2023/05/22 04:01:19;;;;;;;1.50;0.93;;;17.10;98.20;;;;;;5040687;28;20486;-78
2023/05/22 04:03:47;;;;;;;1.50;1.00;;;17.10;98.20;;;;;;5045414;28;20490;-79
2023/05/22 04:06:14;;;;;;;2.37;1.57;;;17.00;98.20;;;;;;5046772;28;20516;-78
2023/05/22 04:08:40;;;;;;;1.50;1.00;;;17.10;98.20;;;;;;5045402;28;21026;-77
2023/05/22 04:11:07;;;;;;;1.70;1.47;;;17.00;98.20;;;;;;5047229;28;20469;-78
2023/05/22 04:13:34;;;;;;;1.50;0.93;;;17.00;98.20;;;;;;5048338;28;20462;-78
2023/05/22 04:16:03;;;;;;;1.50;1.00;;;17.00;98.20;;;;;;5048113;28;20462;-78
2023/05/22 04:18:29;;;;;;;1.50;1.00;;;17.00;98.20;;;;;;5049496;28;20486;-79
2023/05/22 04:20:58;;;;;;;1.47;0.90;;;17.00;98.20;;;;;;5048866;28;20549;-78
2023/05/22 04:23:27;;;;;;;1.50;0.90;;;17.00;98.20;;;;;;5048650;28;20983;-78
2023/05/22 04:25:54;;;;;;;1.50;0.90;;;17.00;98.20;;;;;;5050536;28;20465;-78
2023/05/22 04:28:22;;;;;;;1.50;0.97;;;17.00;98.20;;;;;;5048781;28;20968;-77
2023/05/22 04:30:48;;;;;;;1.50;0.90;;;17.00;98.20;;;;;;5048664;28;20885;-77
2023/05/22 04:33:16;;;;;;;1.50;1.00;;;17.00;98.20;;;;;;5048833;28;20462;-77
2023/05/22 04:35:43;;;;;;;1.50;0.90;;;17.00;98.20;;;;;;5049683;28;20504;-78
2023/05/22 04:38:11;;;;;;;1.50;0.90;;;17.00;98.20;;;;;;5047978;28;20495;-80
2023/05/22 04:40:38;;;;;;;1.50;1.00;;;17.00;98.20;;;;;;5047905;28;20787;-79
2023/05/22 04:43:06;;;;;;;1.50;0.90;;;17.00;98.20;;;;;;5049699;28;20512;-78
2023/05/22 04:45:34;;;;;;;1.50;0.90;;;17.00;98.20;;;;;;5048108;28;20840;-79
2023/05/22 04:48:01;;;;;;;1.50;1.00;;;17.00;98.20;;;;;;5049155;28;20886;-77
2023/05/22 04:50:31;;;;;;;1.53;1.20;;;17.10;98.20;;;;;;5040183;28;20587;-77
2023/05/22 04:52:58;;;;;;;1.50;1.00;;;17.10;98.20;;;;;;5040953;28;20477;-80
2023/05/22 04:55:26;;;;;;;1.50;0.90;;;17.10;98.20;;;;;;5043948;28;20459;-78
2023/05/22 04:57:53;;;;;;;1.50;0.90;;;17.10;98.20;;;;;;5042205;28;20842;-77
2023/05/22 05:00:25;;;;;;;1.50;0.90;;;17.20;98.20;;;;;;5043759;28;20508;-79
2023/05/22 05:02:52;;;;;;;1.50;1.00;;;17.20;98.20;;;;;;5041215;28;21156;-78
2023/05/22 05:05:19;;;;;;;1.50;0.90;;;17.20;98.20;;;;;;5043816;28;20537;-78
2023/05/22 05:07:47;;;;;;;1.50;1.00;;;17.20;98.20;;;;;;5044601;28;20450;-80
2023/05/22 05:10:14;;;;;;;1.50;0.90;;;17.20;98.20;;;;;;5045187;28;20482;-80
2023/05/22 05:12:42;;;;;;;1.50;0.90;;;17.20;98.20;;;;;;5044112;28;20466;-77
2023/05/22 05:15:09;;;;;;;1.50;0.90;;;17.30;98.20;;;;;;5046690;28;20481;-78
2023/05/22 05:17:37;;;;;;;1.50;1.00;;;17.30;98.20;;;;;;5045005;28;20493;-78
2023/05/22 05:20:06;;;;;;;1.50;0.90;;;17.30;98.20;;;;;;5047105;28;20579;-78
2023/05/22 05:22:33;;;;;;;1.47;0.90;;;17.30;98.20;;;;;;5046933;28;20534;-79
2023/05/22 05:24:59;;;;;;;1.47;0.90;;;17.30;98.20;;;;;;5046249;28;20458;-78
2023/05/22 05:27:26;;;;;;;1.50;1.00;;;17.30;98.20;;;;;;5044934;28;20466;-78
2023/05/22 05:29:54;;;;;;;1.50;1.00;;;17.30;98.20;;;;;;5043524;28;20490;-79
2023/05/22 05:32:21;;;;;;;1.50;0.90;;;17.30;98.20;;;;;;5043409;28;21286;-80
2023/05/22 05:34:48;;;;;;;1.50;0.90;;;17.30;98.20;;;;;;5048105;28;20463;-80
2023/05/22 05:37:15;;;;;;;1.50;0.90;;;17.40;98.20;;;;;;5046114;28;20493;-81
2023/05/22 05:39:42;;;;;;;1.50;0.97;;;17.40;98.20;;;;;;5047477;28;20525;-79
2023/05/22 05:42:09;;;;;;;1.50;1.00;;;17.40;98.20;;;;;;5050897;28;20470;-78
2023/05/22 05:44:35;;;;;;;1.50;0.90;;;17.40;98.20;;;;;;5048094;28;20513;-78
2023/05/22 05:47:04;;;;;;;1.50;0.93;;;17.50;98.20;;;;;;5050455;28;20609;-78
2023/05/22 05:49:31;;;;;;;1.50;0.90;;;17.50;98.20;;;;;;5048319;28;20486;-78
2023/05/22 05:51:57;;;;;;;1.50;1.00;;;17.60;98.20;;;;;;5050503;28;20920;-79
2023/05/22 05:54:25;;;;;;;1.50;0.90;;;17.50;98.20;;;;;;5052052;28;20462;-79
2023/05/22 05:56:52;;;;;;;1.50;0.90;;;17.60;98.20;;;;;;5050596;28;20465;-79
2023/05/22 05:59:19;;;;;;;1.50;0.90;;;17.60;98.20;;;;;;5052107;28;20934;-80
2023/05/22 06:01:47;;;;;;;1.50;1.10;;;17.60;98.20;;;;;;5050411;28;20859;-81
2023/05/22 06:04:15;;;;;;;1.50;0.97;;;17.60;98.20;;;;;;5051228;28;20455;-82
2023/05/22 06:06:43;;;;;;;1.50;0.97;;;17.60;98.20;;;;;;5051268;28;20498;-81
2023/05/22 06:09:10;;;;;;;1.50;0.90;;;17.60;98.20;;;;;;5054178;28;20554;-82
2023/05/22 06:11:37;;;;;;;1.50;0.90;;;17.70;98.20;;;;;;5053735;28;20812;-82
2023/05/22 06:14:06;;;;;;;1.50;1.00;;;17.70;98.20;;;;;;5053723;28;21034;-81
2023/05/22 06:16:36;;;;;;;1.50;1.00;;;17.80;98.20;;;;;;5055978;28;20462;-82
2023/05/22 06:19:03;;;;;;;1.60;1.27;;;17.80;98.20;;;;;;5054556;28;20923;-82
2023/05/22 06:21:31;;;;;;;1.50;0.90;;;17.90;98.20;;;;;;5054401;28;20520;-82
2023/05/22 06:23:58;;;;;;;1.50;1.00;;;18.00;98.20;;;;;;5056334;28;20462;-81
2023/05/22 06:26:26;;;;;;;1.50;0.90;;;18.10;98.20;;;;;;5053223;28;20528;-82
2023/05/22 06:28:53;;;;;;;1.50;0.90;;;18.10;98.20;;;;;;5054443;28;20906;-81
2023/05/22 06:31:21;;;;;;;1.50;0.90;;;18.20;98.20;;;;;;5052781;28;20813;-83
2023/05/22 06:33:48;;;;;;;1.50;1.00;;;18.30;98.20;;;;;;5052145;28;20473;-83
2023/05/22 06:39:00;;;;;;;1.50;0.90;;;18.30;98.20;;;;;;5052118;28;20498;-82
2023/05/22 06:41:27;;;;;;;1.50;0.90;;;18.40;98.20;;;;;;5051034;28;20550;-82
2023/05/22 06:43:54;;;;;;;1.50;0.93;;;18.40;98.20;;;;;;5052552;28;20459;-82
2023/05/22 06:46:21;;;;;;;1.50;0.90;;;18.40;98.20;;;;;;5051693;28;20549;-81
2023/05/22 06:48:48;;;;;;;1.50;0.90;;;18.40;98.20;;;;;;5052143;28;20490;-81
2023/05/22 06:51:15;;;;;;;1.50;0.90;;;18.40;98.20;;;;;;5049294;28;20467;-81
2023/05/22 06:53:41;;;;;;;2.20;2.00;;;18.40;98.20;;;;;;5049414;28;20478;-81
2023/05/22 06:56:10;;;;;;;1.50;0.90;;;18.40;98.20;;;;;;5047147;28;20454;-80
2023/05/22 06:58:36;;;;;;;1.50;1.00;;;18.40;98.20;;;;;;5051410;28;20522;-80
2023/05/22 07:01:04;;;;;;;1.83;1.30;;;18.40;98.20;;;;;;5049749;28;20469;-81
2023/05/22 07:03:31;;;;;;;1.50;0.90;;;18.40;98.20;;;;;;5049388;28;20481;-80
2023/05/22 07:05:58;;;;;;;1.50;0.90;;;18.30;98.20;;;;;;5048588;28;20470;-81
2023/05/22 07:08:25;;;;;;;1.50;0.90;;;18.30;98.20;;;;;;5047643;28;20545;-81
2023/05/22 07:10:52;;;;;;;1.50;0.90;;;18.30;98.20;;;;;;5049955;28;20466;-81
2023/05/22 07:13:20;;;;;;;1.50;0.90;;;18.30;98.20;;;;;;5048610;28;20859;-80
2023/05/22 07:15:47;;;;;;;1.47;0.90;;;18.40;98.20;;;;;;5047465;28;20454;-80
2023/05/22 07:18:14;;;;;;;1.50;0.90;;;18.40;98.20;;;;;;5047546;28;20540;-81
2023/05/22 07:20:40;;;;;;;1.50;0.90;;;18.40;98.20;;;;;;5047220;28;20968;-80
2023/05/22 07:23:08;;;;;;;1.50;0.90;;;18.40;98.20;;;;;;5048238;28;20863;-80
2023/05/22 07:25:34;;;;;;;1.50;0.90;;;18.50;98.20;;;;;;5049622;28;20490;-80
2023/05/22 07:28:07;;;;;;;1.70;1.40;;;18.50;98.20;;;;;;5046756;28;20533;-80
2023/05/22 07:30:36;;;;;;;1.50;1.10;;;18.60;98.20;;;;;;5045329;28;20462;-81
2023/05/22 07:33:03;;;;;;;1.50;0.90;;;18.60;98.20;;;;;;5048574;28;20847;-80
2023/05/22 07:35:29;;;;;;;1.50;0.90;;;18.70;98.20;;;;;;5045069;28;21031;-80
2023/05/22 07:37:56;;;;;;;1.50;0.90;;;18.70;98.20;;;;;;5044951;28;20573;-80
2023/05/22 07:40:23;;;;;;;1.50;0.90;;;18.70;98.20;;;;;;5045637;28;20834;-78
2023/05/22 07:42:50;;;;;;;1.50;1.00;;;18.70;98.20;;;;;;5043364;28;20477;-80
2023/05/22 07:45:17;;;;;;;1.50;0.97;;;18.70;98.20;;;;;;5045706;28;20829;-80
2023/05/22 07:47:45;;;;;;;1.50;0.90;;;18.70;98.20;;;;;;5046030;28;20450;-80
2023/05/22 07:50:12;;;;;;;1.50;0.90;;;18.70;98.20;;;;;;5045497;28;20489;-79
2023/05/22 07:52:39;;;;;;;1.50;0.90;;;18.80;98.20;;;;;;5045323;28;20488;-80
2023/05/22 07:55:07;;;;;;;1.50;0.90;;;18.80;98.20;;;;;;5047245;28;20473;-80
2023/05/22 07:57:35;;;;;;;1.50;1.00;;;18.90;98.20;;;;;;5050102;28;20494;-80
2023/05/22 08:00:11;;;;;;;1.50;0.90;;;18.90;98.20;;;;;;5049056;28;20489;-81
2023/05/22 08:02:38;;;;;;;1.50;0.90;;;18.90;98.20;;;;;;5047229;28;20454;-80
2023/05/22 08:05:08;;;;;;;5.87;1.20;;;19.00;98.20;;;;;;5042607;28;20458;-79
2023/05/22 08:07:35;;;;;;;1.50;0.90;;;19.00;98.20;;;;;;5048078;28;20989;-79
2023/05/22 08:10:04;;;;;;;1.50;0.90;;;19.00;98.20;;;;;;5047273;28;20771;-81
2023/05/22 08:12:31;;;;;;;1.50;1.10;;;19.10;98.20;;;;;;5045585;28;20858;-81
2023/05/22 08:14:58;;;;;;;1.50;0.90;;;19.20;98.20;;;;;;5046324;28;20489;-79
2023/05/22 08:17:24;;;;;;;3.77;1.87;;;19.30;98.20;;;;;;5050632;28;20463;-80
2023/05/22 08:19:51;;;;;;;1.50;1.00;;;19.30;98.20;;;;;;5043862;28;20482;-80
2023/05/22 08:22:20;;;;;;;1.50;0.90;;;19.40;98.20;;;;;;5041999;28;20466;-80
2023/05/22 08:24:46;;;;;;;1.50;0.90;;;19.50;98.20;;;;;;5044953;28;20894;-79
2023/05/22 08:27:13;;;;;;;1.50;0.90;;;19.50;98.20;;;;;;5043896;28;20467;-80
2023/05/22 08:29:40;;;;;;;1.50;0.93;;;19.50;98.20;;;;;;5044121;28;20492;-80
2023/05/22 08:32:07;;;;;;;1.50;0.90;;;19.40;98.20;;;;;;5040693;28;20466;-82
2023/05/22 08:34:35;;;;;;;1.50;0.90;;;19.40;98.20;;;;;;5048427;28;20458;-81
2023/05/22 08:37:01;;;;;;;1.50;0.90;;;19.50;98.20;;;;;;5047210;28;20465;-80
2023/05/22 08:39:30;;;;;;;1.50;0.90;;;19.40;98.20;;;;;;5050181;28;20523;-79
2023/05/22 08:41:58;;;;;;;1.50;0.90;;;19.50;98.20;;;;;;5048576;28;20458;-79
2023/05/22 08:44:25;;;;;;;1.50;0.90;;;19.60;98.20;;;;;;5048754;28;20527;-80
2023/05/22 08:46:52;;;;;;;1.50;0.90;;;19.60;98.20;;;;;;5049284;28;20534;-79
2023/05/22 08:49:21;;;;;;;1.50;1.00;;;19.70;98.20;;;;;;5048387;28;20482;-80
2023/05/22 08:51:52;;;;;;;1.50;0.90;;;19.70;98.20;;;;;;5048555;28;20477;-80
2023/05/22 08:54:22;;;;;;;1.93;1.83;;;19.70;98.20;;;;;;5050506;28;20462;-80
2023/05/22 08:56:51;;;;;;;1.60;1.00;;;19.80;98.20;;;;;;5051067;28;20451;-81
2023/05/22 08:59:19;;;;;;;1.50;0.97;;;19.80;98.20;;;;;;5049880;28;20561;-80
2023/05/22 09:01:47;;;;;;;1.50;0.90;;;19.90;98.20;;;;;;5047941;28;20458;-81
2023/05/22 09:04:14;;;;;;;1.50;0.90;;;19.90;98.20;;;;;;5044101;28;20463;-81
2023/05/22 09:06:41;;;;;;;1.93;1.67;;;20.00;98.20;;;;;;5048953;28;20703;-81
2023/05/22 09:09:09;;;;;;;1.50;0.90;;;20.00;98.20;;;;;;5047351;28;20482;-81
2023/05/22 09:11:36;;;;;;;3.10;1.83;;;20.10;98.20;;;;;;5046473;28;20466;-81
2023/05/22 09:14:10;;;;;;;1.50;0.90;;;20.10;98.20;;;;;;5048343;28;20562;-81
2023/05/22 09:16:45;;;;;;;1.50;0.90;;;20.20;98.20;;;;;;5044726;28;20466;-81
2023/05/22 09:19:13;;;;;;;1.50;0.90;;;20.30;98.20;;;;;;5044237;28;20493;-81
2023/05/22 09:21:39;;;;;;;1.50;0.90;;;20.30;98.20;;;;;;5047399;28;20470;-82
2023/05/22 09:24:08;;;;;;;1.50;0.90;;;20.40;98.20;;;;;;5050735;28;21024;-80
2023/05/22 09:26:36;;;;;;;1.50;0.90;;;20.40;98.20;;;;;;5054653;28;20803;-81
2023/05/22 09:34:12;;;;;;;1.50;0.90;;;20.60;98.20;;;;;;5062217;28;20807;-85
2023/05/22 09:36:39;;;;;;;1.50;0.90;;;20.70;98.20;;;;;;5070741;28;20523;-82
2023/05/22 09:39:07;;;;;;;1.50;0.90;;;20.70;98.20;;;;;;5069514;28;20534;-84
2023/05/22 09:41:37;;;;;;;1.50;1.00;;;20.80;98.20;;;;;;5069274;28;20480;-84
2023/05/22 09:44:13;;;;;;;1.50;1.00;;;20.80;98.20;;;;;;5065957;28;20552;-83
2023/05/22 09:46:41;;;;;;;1.50;0.90;;;20.90;98.20;;;;;;5065806;28;20464;-81
2023/05/22 09:49:09;;;;;;;1.50;0.90;;;20.90;98.20;;;;;;5063288;28;20454;-83
2023/05/22 09:51:39;;;;;;;1.50;0.90;;;20.90;98.20;;;;;;5062712;28;20482;-81
2023/05/22 09:54:09;;;;;;;1.50;0.90;;;21.00;98.20;;;;;;5063293;28;20458;-83
2023/05/22 09:56:37;;;;;;;1.50;0.90;;;21.00;98.20;;;;;;5058317;28;20462;-82
2023/05/22 09:59:08;;;;;;;1.50;0.90;;;21.10;98.20;;;;;;5054866;28;20771;-82
2023/05/22 10:01:36;;;;;;;1.50;0.90;;;21.10;98.20;;;;;;5056911;28;20592;-82
2023/05/22 10:04:04;;;;;;;1.50;0.90;;;21.20;98.20;;;;;;5060337;28;20834;-84
2023/05/22 10:06:33;;;;;;;1.50;0.90;;;21.30;98.20;;;;;;5062791;28;20457;-80
2023/05/22 10:09:04;;;;;;;1.50;0.90;;;21.40;98.20;;;;;;5061387;28;20543;-81
2023/05/22 10:11:32;;;;;;;1.50;0.90;;;21.50;98.20;;;;;;5057431;28;20494;-82
2023/05/22 10:14:00;;;;;;;1.50;0.90;;;21.50;98.20;;;;;;5062184;28;20465;-81
2023/05/22 10:16:28;;;;;;;1.50;0.90;;;21.60;98.20;;;;;;5061407;28;20462;-84
2023/05/22 10:18:56;;;;;;;1.53;1.10;;;21.70;98.20;;;;;;5061893;28;20489;-82
2023/05/22 10:21:23;;;;;;;1.53;1.00;;;21.80;98.20;;;;;;5061545;28;20484;-83
2023/05/22 10:23:51;;;;;;;1.50;0.90;;;21.90;98.20;;;;;;5065591;28;20539;-85
2023/05/22 10:26:19;;;;;;;1.50;0.90;;;21.90;98.20;;;;;;5063097;28;20642;-82
2023/05/22 10:28:53;;;;;;;1.50;0.90;;;21.90;98.20;;;;;;5060550;28;20457;-82
2023/05/22 10:31:28;;;;;;;1.50;1.10;;;21.90;98.20;;;;;;5068291;28;20556;-85
2023/05/22 10:34:04;;;;;;;1.50;0.80;;;22.00;98.20;;;;;;5065700;28;20572;-84
2023/05/22 10:36:45;;;;;;;1.50;0.90;;;22.10;98.20;;;;;;5063577;28;20639;-79
2023/05/22 10:39:27;;;;;;;1.47;0.90;;;22.10;98.20;;;;;;5065538;28;20495;-82
2023/05/22 10:41:54;;;;;;;1.50;0.90;;;22.20;98.20;;;;;;5066870;28;20558;-83
2023/05/22 10:44:22;;;;;;;1.50;0.90;;;22.20;98.20;;;;;;5062562;28;21032;-81
2023/05/22 10:46:49;;;;;;;1.47;0.90;;;22.10;98.20;;;;;;5068940;28;20466;-84
2023/05/22 10:49:22;;;;;;;1.47;0.90;;;22.20;98.20;;;;;;5070631;28;20469;-83
2023/05/22 10:51:49;;;;;;;1.50;0.90;;;22.30;98.20;;;;;;5060673;28;20478;-84
2023/05/22 10:54:17;;;;;;;1.50;0.90;;;22.40;98.20;;;;;;5060534;28;20548;-81
2023/05/22 10:56:45;;;;;;;1.50;0.90;;;22.50;98.20;;;;;;5055420;28;20465;-82
2023/05/22 10:59:12;;;;;;;1.50;0.90;;;22.50;98.20;;;;;;5055576;28;20523;-83
2023/05/22 11:01:39;;;;;;;1.50;0.87;;;22.50;98.20;;;;;;5053795;28;20569;-84
2023/05/22 11:04:13;;;;;;;1.50;0.90;;;22.60;98.20;;;;;;5055202;28;20775;-81
2023/05/22 11:06:41;;;;;;;1.50;0.90;;;22.60;98.20;;;;;;5055428;28;21050;-82
2023/05/22 11:09:20;;;;;;;2.17;1.63;;;22.70;98.20;;;;;;5061776;28;20474;-79
2023/05/22 11:11:50;;;;;;;1.50;0.90;;;22.70;98.20;;;;;;5058603;28;20490;-81
2023/05/22 11:14:20;;;;;;;1.50;0.90;;;22.70;98.20;;;;;;5060838;28;20524;-81
2023/05/22 11:16:47;;;;;;;1.50;0.90;;;22.70;98.20;;;;;;5057496;28;20473;-82
2023/05/22 11:19:15;;;;;;;1.60;1.13;;;22.90;98.20;;;;;;5057603;28;20481;-82
2023/05/22 11:21:46;;;;;;;1.47;0.87;;;23.00;98.20;;;;;;5056259;28;20485;-82
2023/05/22 11:24:16;;;;;;;1.50;0.90;;;23.20;98.20;;;;;;5059891;28;20881;-82
2023/05/22 11:27:00;;;;;;;1.50;0.90;;;23.20;98.20;;;;;;5058006;28;20506;-81
2023/05/22 11:29:28;;;;;;;1.50;0.90;;;23.30;98.20;;;;;;5059491;28;20496;-82
2023/05/22 11:31:56;;;;;;;1.50;0.90;;;23.50;98.20;;;;;;5059509;28;21045;-83
2023/05/22 11:34:24;;;;;;;1.60;1.17;;;23.60;98.20;;;;;;5062825;28;20468;-82
2023/05/22 11:36:52;;;;;;;5.57;3.20;;;23.70;98.20;;;;;;5062117;28;20767;-81
2023/05/22 11:39:19;;;;;;;1.70;1.23;;;23.90;98.20;;;;;;5067124;28;21035;-82
2023/05/22 11:41:47;;;;;;;1.50;1.00;;;24.00;98.20;;;;;;5064880;28;20488;-81
2023/05/22 11:44:14;;;;;;;1.50;0.90;;;24.10;98.20;;;;;;5059362;28;20560;-79
2023/05/22 11:46:41;;;;;;;1.50;0.90;;;24.30;98.20;;;;;;5063874;28;20533;-84
2023/05/22 11:49:11;;;;;;;1.50;0.90;;;24.50;98.20;;;;;;5066301;28;20842;-81
2023/05/22 11:51:42;;;;;;;1.50;0.90;;;24.60;98.20;;;;;;5060210;28;20555;-80
2023/05/22 11:54:09;;;;;;;1.50;0.90;;;24.80;98.20;;;;;;5055317;28;20910;-82
2023/05/22 11:56:36;;;;;;;1.50;0.90;;;25.00;98.20;;;;;;5056662;28;20901;-79
2023/05/22 11:59:04;;;;;;;2.00;1.33;;;25.10;98.20;;;;;;5054473;28;20767;-82
2023/05/22 12:01:32;;;;;;;1.50;0.80;;;25.30;98.20;;;;;;5050473;28;20549;-82
2023/05/22 12:04:03;;;;;;;1.50;0.80;;;25.40;98.20;;;;;;5069884;28;20464;-80
2023/05/22 12:06:32;;;;;;;1.50;0.90;;;25.60;97.90;;;;;;5062297;28;20464;-80
2023/05/22 12:08:59;;;;;;;1.50;0.80;;;25.70;98.20;;;;;;5057939;28;20469;-80
2023/05/22 12:11:27;;;;;;;1.50;0.80;;;25.90;97.90;;;;;;5061785;28;20482;-80
2023/05/22 12:14:05;;;;;;;1.90;1.70;;;26.10;97.10;;;;;;5062689;28;20461;-81
2023/05/22 12:16:35;;;;;;;1.53;1.00;;;26.20;96.70;;;;;;5066200;28;20461;-81
2023/05/22 12:19:05;;;;;;;1.50;0.80;;;26.30;95.50;;;;;;5067511;28;20484;-81
2023/05/22 12:21:32;;;;;;;1.50;0.80;;;26.50;95.80;;;;;;5070645;28;20574;-80
2023/05/22 12:24:05;;;;;;;1.50;0.80;;;26.60;94.80;;;;;;5066443;28;20503;-83
2023/05/22 12:26:33;;;;;;;1.57;1.07;;;26.60;95.20;;;;;;5058611;28;20473;-81
2023/05/22 12:29:01;;;;;;;1.50;0.80;;;26.80;95.40;;;;;;5057490;28;20462;-82
2023/05/22 12:31:34;;;;;;;1.50;0.80;;;26.90;95.00;;;;;;5054680;28;20490;-82
2023/05/22 12:34:04;;;;;;;1.50;0.80;;;27.10;94.30;;;;;;5051592;28;20491;-82
2023/05/22 12:36:34;;;;;;;1.50;0.90;;;27.30;93.30;;;;;;5052742;28;20462;-81
2023/05/22 12:39:02;;;;;;;1.50;1.00;;;27.40;93.60;;;;;;5055821;28;20487;-82
2023/05/22 12:41:29;;;;;;;1.47;0.80;;;27.60;93.90;;;;;;5056950;28;21069;-80
2023/05/22 12:44:04;;;;;;;1.47;0.80;;;27.80;92.50;;;;;;5059331;28;20488;-82
2023/05/22 12:46:33;;;;;;;1.50;0.80;;;27.90;92.40;;;;;;5061942;28;20481;-81
2023/05/22 12:49:01;;;;;;;1.83;1.43;;;28.10;92.00;;;;;;5063573;28;20830;-81
2023/05/22 12:51:30;;;;;;;1.50;0.80;;;28.20;90.40;;;;;;5064602;28;20490;-82
2023/05/22 12:53:56;;;;;;;1.50;0.90;;;28.20;90.80;;;;;;5062022;28;20947;-81
2023/05/22 12:56:23;;;;;;;1.50;1.00;;;28.30;92.00;;;;;;5064502;28;20461;-81
2023/05/22 12:58:50;;;;;;;1.50;0.80;;;28.40;91.10;;;;;;5063933;28;20468;-81
2023/05/22 13:01:17;;;;;;;1.47;0.80;;;28.30;90.30;;;;;;5063093;28;20484;-82